sensor_id;sensor_type;location;lat;lon;timestamp;P1;durP1;ratioP1;P2;durP2;ratioP2
44446;SDS011;30152;52.066;5.358;2023-02-26T07:41:56;7.65;;;1.45;;
44446;SDS011;30152;52.066;5.358;2023-02-26T07:44:22;5.50;;;1.00;;
44446;SDS011;30152;52.066;5.358;2023-02-26T07:46:48;6.68;;;1.00;;
44446;SDS011;30152;52.066;5.358;2023-02-26T07:49:14;4.93;;;0.70;;
44446;SDS011;30152;52.066;5.358;2023-02-26T07:51:39;6.07;;;1.23;;
44446;SDS011;30152;52.066;5.358;2023-02-26T07:54:09;6.22;;;1.45;;
44446;SDS011;30152;52.066;5.358;2023-02-26T07:56:36;5.93;;;0.90;;
44446;SDS011;30152;52.066;5.358;2023-02-26T07:59:03;6.47;;;0.75;;
44446;SDS011;30152;52.066;5.358;2023-02-26T08:01:29;5.10;;;0.77;;
44446;SDS011;30152;52.066;5.358;2023-02-26T08:03:55;3.33;;;0.80;;
44446;SDS011;30152;52.066;5.358;2023-02-26T08:06:20;6.38;;;0.90;;
44446;SDS011;30152;52.066;5.358;2023-02-26T08:08:46;3.33;;;0.77;;
44446;SDS011;30152;52.066;5.358;2023-02-26T08:11:11;5.35;;;0.82;;
44446;SDS011;30152;52.066;5.358;2023-02-26T08:13:37;5.97;;;1.02;;
44446;SDS011;30152;52.066;5.358;2023-02-26T08:16:03;5.60;;;1.30;;
44446;SDS011;30152;52.066;5.358;2023-02-26T08:18:29;3.30;;;0.85;;
44446;SDS011;30152;52.066;5.358;2023-02-26T08:20:54;5.65;;;0.88;;
44446;SDS011;30152;52.066;5.358;2023-02-26T08:23:20;9.35;;;0.90;;
44446;SDS011;30152;52.066;5.358;2023-02-26T08:25:46;5.70;;;0.90;;
44446;SDS011;30152;52.066;5.358;2023-02-26T08:28:13;4.80;;;0.77;;
44446;SDS011;30152;52.066;5.358;2023-02-26T08:30:38;7.47;;;0.90;;
44446;SDS011;30152;52.066;5.358;2023-02-26T08:33:04;5.57;;;0.93;;
44446;SDS011;30152;52.066;5.358;2023-02-26T08:35:30;4.80;;;1.10;;
44446;SDS011;30152;52.066;5.358;2023-02-26T08:37:55;4.18;;;0.73;;
44446;SDS011;30152;52.066;5.358;2023-02-26T08:40:21;10.13;;;0.80;;
44446;SDS011;30152;52.066;5.358;2023-02-26T08:42:47;7.70;;;0.93;;
44446;SDS011;30152;52.066;5.358;2023-02-26T08:45:12;7.07;;;0.82;;
44446;SDS011;30152;52.066;5.358;2023-02-26T08:47:38;9.10;;;1.10;;
44446;SDS011;30152;52.066;5.358;2023-02-26T08:50:09;4.82;;;1.13;;
44446;SDS011;30152;52.066;5.358;2023-02-26T08:52:35;8.10;;;1.10;;
44446;SDS011;30152;52.066;5.358;2023-02-26T08:55:02;5.70;;;1.08;;
44446;SDS011;30152;52.066;5.358;2023-02-26T08:57:28;5.43;;;1.08;;
44446;SDS011;30152;52.066;5.358;2023-02-26T08:59:54;7.50;;;1.20;;
44446;SDS011;30152;52.066;5.358;2023-02-26T09:02:19;3.90;;;0.70;;
44446;SDS011;30152;52.066;5.358;2023-02-26T09:04:45;7.93;;;0.70;;
44446;SDS011;30152;52.066;5.358;2023-02-26T09:07:11;8.02;;;1.15;;
44446;SDS011;30152;52.066;5.358;2023-02-26T09:09:36;4.07;;;0.70;;
44446;SDS011;30152;52.066;5.358;2023-02-26T09:12:03;5.10;;;1.05;;
44446;SDS011;30152;52.066;5.358;2023-02-26T09:14:28;8.88;;;1.23;;
44446;SDS011;30152;52.066;5.358;2023-02-26T09:16:54;2.25;;;0.52;;
44446;SDS011;30152;52.066;5.358;2023-02-26T09:19:20;4.00;;;0.80;;
44446;SDS011;30152;52.066;5.358;2023-02-26T09:21:46;6.93;;;0.60;;
44446;SDS011;30152;52.066;5.358;2023-02-26T09:24:12;2.80;;;0.50;;
44446;SDS011;30152;52.066;5.358;2023-02-26T09:26:38;4.75;;;0.85;;
44446;SDS011;30152;52.066;5.358;2023-02-26T09:29:04;1.70;;;0.38;;
44446;SDS011;30152;52.066;5.358;2023-02-26T09:31:30;3.03;;;0.65;;
44446;SDS011;30152;52.066;5.358;2023-02-26T09:33:56;5.18;;;0.60;;
44446;SDS011;30152;52.066;5.358;2023-02-26T09:36:22;4.18;;;0.60;;
44446;SDS011;30152;52.066;5.358;2023-02-26T09:38:47;3.88;;;0.40;;
44446;SDS011;30152;52.066;5.358;2023-02-26T09:41:25;2.55;;;0.60;;
44446;SDS011;30152;52.066;5.358;2023-02-26T09:46:45;4.05;;;0.55;;
44446;SDS011;30152;52.066;5.358;2023-02-26T09:52:23;7.75;;;0.77;;
44446;SDS011;30152;52.066;5.358;2023-02-26T09:55:04;4.43;;;0.50;;
44446;SDS011;30152;52.066;5.358;2023-02-26T09:57:45;5.07;;;0.70;;
44446;SDS011;30152;52.066;5.358;2023-02-26T10:02:59;6.00;;;1.08;;
44446;SDS011;30152;52.066;5.358;2023-02-26T10:08:33;3.33;;;0.60;;
44446;SDS011;30152;52.066;5.358;2023-02-26T10:11:10;3.20;;;0.70;;
44446;SDS011;30152;52.066;5.358;2023-02-26T10:13:51;3.25;;;0.50;;
44446;SDS011;30152;52.066;5.358;2023-02-26T10:16:21;0.75;;;0.20;;
44446;SDS011;30152;52.066;5.358;2023-02-26T10:18:50;6.50;;;0.90;;
44446;SDS011;30152;52.066;5.358;2023-02-26T10:23:51;5.10;;;0.50;;
44446;SDS011;30152;52.066;5.358;2023-02-26T10:26:24;4.30;;;0.90;;
44446;SDS011;30152;52.066;5.358;2023-02-26T10:28:57;1.52;;;0.40;;
44446;SDS011;30152;52.066;5.358;2023-02-26T10:31:31;4.18;;;0.70;;
44446;SDS011;30152;52.066;5.358;2023-02-26T10:34:15;2.50;;;0.52;;
44446;SDS011;30152;52.066;5.358;2023-02-26T10:38:01;3.55;;;0.52;;
44446;SDS011;30152;52.066;5.358;2023-02-26T10:40:14;5.97;;;0.93;;
44446;SDS011;30152;52.066;5.358;2023-02-26T10:42:42;3.70;;;0.55;;
44446;SDS011;30152;52.066;5.358;2023-02-26T10:45:32;3.30;;;0.45;;
44446;SDS011;30152;52.066;5.358;2023-02-26T10:49:09;2.80;;;0.57;;
44446;SDS011;30152;52.066;5.358;2023-02-26T10:51:07;0.80;;;0.30;;
44446;SDS011;30152;52.066;5.358;2023-02-26T10:53:37;3.15;;;0.60;;
44446;SDS011;30152;52.066;5.358;2023-02-26T10:56:14;4.07;;;0.50;;
44446;SDS011;30152;52.066;5.358;2023-02-26T10:58:44;3.03;;;0.60;;
44446;SDS011;30152;52.066;5.358;2023-02-26T11:01:15;2.70;;;0.40;;
44446;SDS011;30152;52.066;5.358;2023-02-26T11:03:48;3.83;;;0.55;;
44446;SDS011;30152;52.066;5.358;2023-02-26T11:06:20;5.43;;;0.50;;
44446;SDS011;30152;52.066;5.358;2023-02-26T11:08:51;3.67;;;0.95;;
44446;SDS011;30152;52.066;5.358;2023-02-26T11:14:20;4.82;;;0.80;;
44446;SDS011;30152;52.066;5.358;2023-02-26T11:16:51;4.93;;;0.57;;
44446;SDS011;30152;52.066;5.358;2023-02-26T11:19:22;4.00;;;0.93;;
44446;SDS011;30152;52.066;5.358;2023-02-26T11:21:52;1.85;;;0.30;;
44446;SDS011;30152;52.066;5.358;2023-02-26T11:24:20;3.38;;;0.43;;
44446;SDS011;30152;52.066;5.358;2023-02-26T11:26:49;2.15;;;0.52;;
44446;SDS011;30152;52.066;5.358;2023-02-26T11:29:19;4.05;;;0.77;;
44446;SDS011;30152;52.066;5.358;2023-02-26T11:31:52;3.05;;;0.75;;
44446;SDS011;30152;52.066;5.358;2023-02-26T11:34:23;4.03;;;0.65;;
44446;SDS011;30152;52.066;5.358;2023-02-26T11:36:49;1.60;;;0.50;;
44446;SDS011;30152;52.066;5.358;2023-02-26T11:39:25;4.22;;;0.70;;
44446;SDS011;30152;52.066;5.358;2023-02-26T11:41:52;3.28;;;0.70;;
44446;SDS011;30152;52.066;5.358;2023-02-26T11:44:28;4.68;;;0.52;;
44446;SDS011;30152;52.066;5.358;2023-02-26T11:46:57;4.28;;;0.77;;
44446;SDS011;30152;52.066;5.358;2023-02-26T11:49:24;5.10;;;0.73;;
44446;SDS011;30152;52.066;5.358;2023-02-26T11:52:05;5.30;;;0.70;;
44446;SDS011;30152;52.066;5.358;2023-02-26T11:54:33;2.67;;;0.80;;
44446;SDS011;30152;52.066;5.358;2023-02-26T11:57:00;3.95;;;0.80;;
44446;SDS011;30152;52.066;5.358;2023-02-26T11:59:26;3.25;;;0.50;;
44446;SDS011;30152;52.066;5.358;2023-02-26T12:01:55;5.05;;;0.95;;
44446;SDS011;30152;52.066;5.358;2023-02-26T12:04:26;2.50;;;0.50;;
44446;SDS011;30152;52.066;5.358;2023-02-26T12:06:52;5.22;;;0.77;;
44446;SDS011;30152;52.066;5.358;2023-02-26T12:09:18;8.02;;;0.68;;
44446;SDS011;30152;52.066;5.358;2023-02-26T12:11:58;2.97;;;0.52;;
44446;SDS011;30152;52.066;5.358;2023-02-26T12:14:38;3.03;;;0.73;;
44446;SDS011;30152;52.066;5.358;2023-02-26T12:22:17;4.63;;;0.43;;
44446;SDS011;30152;52.066;5.358;2023-02-26T12:30:19;3.97;;;0.70;;
44446;SDS011;30152;52.066;5.358;2023-02-26T12:32:59;4.93;;;0.85;;
44446;SDS011;30152;52.066;5.358;2023-02-26T12:38:19;5.15;;;1.95;;
44446;SDS011;30152;52.066;5.358;2023-02-26T12:53:28;2.30;;;0.50;;
44446;SDS011;30152;52.066;5.358;2023-02-26T12:58:40;2.95;;;0.70;;
44446;SDS011;30152;52.066;5.358;2023-02-26T13:01:17;4.50;;;0.57;;
44446;SDS011;30152;52.066;5.358;2023-02-26T13:06:32;3.25;;;0.60;;
44446;SDS011;30152;52.066;5.358;2023-02-26T13:09:12;5.90;;;0.93;;
44446;SDS011;30152;52.066;5.358;2023-02-26T13:22:40;1.35;;;0.50;;
44446;SDS011;30152;52.066;5.358;2023-02-26T13:27:52;2.50;;;0.30;;
44446;SDS011;30152;52.066;5.358;2023-02-26T13:32:49;3.05;;;0.57;;
44446;SDS011;30152;52.066;5.358;2023-02-26T13:37:45;4.50;;;0.47;;
44446;SDS011;30152;52.066;5.358;2023-02-26T13:45:22;3.17;;;0.40;;
44446;SDS011;30152;52.066;5.358;2023-02-26T13:50:43;3.20;;;0.80;;
44446;SDS011;30152;52.066;5.358;2023-02-26T13:56:04;1.73;;;0.30;;
44446;SDS011;30152;52.066;5.358;2023-02-26T13:58:38;3.17;;;0.88;;
44446;SDS011;30152;52.066;5.358;2023-02-26T14:01:18;3.92;;;0.40;;
44446;SDS011;30152;52.066;5.358;2023-02-26T14:03:52;1.30;;;0.30;;
44446;SDS011;30152;52.066;5.358;2023-02-26T14:06:40;2.20;;;0.40;;
44446;SDS011;30152;52.066;5.358;2023-02-26T14:11:56;1.83;;;0.40;;
44446;SDS011;30152;52.066;5.358;2023-02-26T14:14:30;6.78;;;0.55;;
44446;SDS011;30152;52.066;5.358;2023-02-26T14:22:21;3.78;;;0.50;;
44446;SDS011;30152;52.066;5.358;2023-02-26T14:24:57;4.90;;;0.70;;
44446;SDS011;30152;52.066;5.358;2023-02-26T14:27:34;4.50;;;0.50;;
44446;SDS011;30152;52.066;5.358;2023-02-26T14:32:31;3.20;;;0.60;;
44446;SDS011;30152;52.066;5.358;2023-02-26T14:34:59;2.08;;;0.50;;
44446;SDS011;30152;52.066;5.358;2023-02-26T14:37:27;1.88;;;0.35;;
44446;SDS011;30152;52.066;5.358;2023-02-26T14:40:03;2.15;;;0.55;;
44446;SDS011;30152;52.066;5.358;2023-02-26T14:42:34;2.50;;;0.40;;
44446;SDS011;30152;52.066;5.358;2023-02-26T14:45:05;1.42;;;0.30;;
44446;SDS011;30152;52.066;5.358;2023-02-26T14:47:33;3.53;;;0.50;;
44446;SDS011;30152;52.066;5.358;2023-02-26T14:50:00;3.03;;;0.40;;
44446;SDS011;30152;52.066;5.358;2023-02-26T15:15:28;3.92;;;0.40;;
44446;SDS011;30152;52.066;5.358;2023-02-26T15:18:01;1.75;;;0.50;;
44446;SDS011;30152;52.066;5.358;2023-02-26T15:20:35;4.65;;;0.70;;
44446;SDS011;30152;52.066;5.358;2023-02-26T15:25:44;2.08;;;0.50;;
44446;SDS011;30152;52.066;5.358;2023-02-26T15:28:12;2.55;;;0.38;;
44446;SDS011;30152;52.066;5.358;2023-02-26T15:30:46;2.97;;;0.40;;
44446;SDS011;30152;52.066;5.358;2023-02-26T15:33:13;3.40;;;0.40;;
44446;SDS011;30152;52.066;5.358;2023-02-26T15:35:42;3.25;;;0.50;;
44446;SDS011;30152;52.066;5.358;2023-02-26T15:38:09;2.95;;;0.55;;
44446;SDS011;30152;52.066;5.358;2023-02-26T15:40:35;4.05;;;0.52;;
44446;SDS011;30152;52.066;5.358;2023-02-26T15:43:02;3.47;;;0.60;;
44446;SDS011;30152;52.066;5.358;2023-02-26T15:48:01;4.47;;;0.45;;
44446;SDS011;30152;52.066;5.358;2023-02-26T15:50:28;3.55;;;0.50;;
44446;SDS011;30152;52.066;5.358;2023-02-26T15:52:58;3.53;;;0.60;;
44446;SDS011;30152;52.066;5.358;2023-02-26T15:55:30;4.68;;;0.57;;
44446;SDS011;30152;52.066;5.358;2023-02-26T15:58:02;2.58;;;0.70;;
44446;SDS011;30152;52.066;5.358;2023-02-26T16:00:31;3.90;;;0.70;;
44446;SDS011;30152;52.066;5.358;2023-02-26T16:02:59;5.40;;;0.68;;
44446;SDS011;30152;52.066;5.358;2023-02-26T16:05:25;4.22;;;0.68;;
44446;SDS011;30152;52.066;5.358;2023-02-26T16:07:51;3.63;;;0.70;;
44446;SDS011;30152;52.066;5.358;2023-02-26T16:10:26;5.55;;;0.70;;
44446;SDS011;30152;52.066;5.358;2023-02-26T16:12:57;5.50;;;0.80;;
44446;SDS011;30152;52.066;5.358;2023-02-26T16:15:28;3.63;;;0.52;;
44446;SDS011;30152;52.066;5.358;2023-02-26T16:17:58;3.30;;;0.60;;
44446;SDS011;30152;52.066;5.358;2023-02-26T16:20:27;1.73;;;0.50;;
44446;SDS011;30152;52.066;5.358;2023-02-26T16:23:03;2.28;;;0.30;;
44446;SDS011;30152;52.066;5.358;2023-02-26T16:25:39;5.85;;;0.80;;
44446;SDS011;30152;52.066;5.358;2023-02-26T16:28:12;3.13;;;0.50;;
44446;SDS011;30152;52.066;5.358;2023-02-26T16:30:41;2.63;;;0.50;;
44446;SDS011;30152;52.066;5.358;2023-02-26T16:33:11;4.22;;;0.68;;
44446;SDS011;30152;52.066;5.358;2023-02-26T16:35:43;4.63;;;0.50;;
44446;SDS011;30152;52.066;5.358;2023-02-26T16:40:55;4.22;;;0.65;;
44446;SDS011;30152;52.066;5.358;2023-02-26T16:43:31;3.95;;;0.63;;
44446;SDS011;30152;52.066;5.358;2023-02-26T16:46:13;4.03;;;0.47;;
44446;SDS011;30152;52.066;5.358;2023-02-26T16:48:44;5.30;;;0.80;;
44446;SDS011;30152;52.066;5.358;2023-02-26T16:51:12;7.18;;;1.13;;
44446;SDS011;30152;52.066;5.358;2023-02-26T16:53:41;3.80;;;0.70;;
44446;SDS011;30152;52.066;5.358;2023-02-26T16:56:13;3.50;;;0.75;;
44446;SDS011;30152;52.066;5.358;2023-02-26T16:58:44;7.07;;;0.90;;
44446;SDS011;30152;52.066;5.358;2023-02-26T17:01:13;6.53;;;1.10;;
44446;SDS011;30152;52.066;5.358;2023-02-26T17:03:45;3.83;;;0.60;;
44446;SDS011;30152;52.066;5.358;2023-02-26T17:06:15;6.45;;;1.30;;
44446;SDS011;30152;52.066;5.358;2023-02-26T17:11:17;7.82;;;1.80;;
44446;SDS011;30152;52.066;5.358;2023-02-26T17:13:46;5.13;;;0.90;;
44446;SDS011;30152;52.066;5.358;2023-02-26T17:16:43;10.35;;;1.52;;
44446;SDS011;30152;52.066;5.358;2023-02-26T17:19:10;17.13;;;3.88;;
44446;SDS011;30152;52.066;5.358;2023-02-26T17:21:36;5.93;;;1.20;;
44446;SDS011;30152;52.066;5.358;2023-02-26T17:24:08;6.00;;;1.20;;
44446;SDS011;30152;52.066;5.358;2023-02-26T17:26:42;7.53;;;2.30;;
44446;SDS011;30152;52.066;5.358;2023-02-26T17:29:11;4.07;;;1.10;;
44446;SDS011;30152;52.066;5.358;2023-02-26T17:31:47;4.47;;;1.08;;
44446;SDS011;30152;52.066;5.358;2023-02-26T17:34:13;8.07;;;1.33;;
44446;SDS011;30152;52.066;5.358;2023-02-26T17:36:38;2.75;;;0.60;;
44446;SDS011;30152;52.066;5.358;2023-02-26T17:39:04;5.03;;;0.80;;
44446;SDS011;30152;52.066;5.358;2023-02-26T17:41:30;6.07;;;0.93;;
44446;SDS011;30152;52.066;5.358;2023-02-26T17:43:58;4.53;;;0.70;;
44446;SDS011;30152;52.066;5.358;2023-02-26T17:46:24;6.68;;;1.48;;
44446;SDS011;30152;52.066;5.358;2023-02-26T17:48:50;5.78;;;0.80;;
44446;SDS011;30152;52.066;5.358;2023-02-26T17:51:16;4.38;;;0.93;;
44446;SDS011;30152;52.066;5.358;2023-02-26T17:53:42;5.40;;;0.90;;
44446;SDS011;30152;52.066;5.358;2023-02-26T17:56:21;7.63;;;1.05;;
44446;SDS011;30152;52.066;5.358;2023-02-26T17:58:49;7.55;;;1.58;;
44446;SDS011;30152;52.066;5.358;2023-02-26T18:01:15;6.82;;;1.45;;
44446;SDS011;30152;52.066;5.358;2023-02-26T18:03:41;7.65;;;1.23;;
44446;SDS011;30152;52.066;5.358;2023-02-26T18:06:08;5.15;;;1.10;;
44446;SDS011;30152;52.066;5.358;2023-02-26T18:08:35;5.10;;;1.05;;
44446;SDS011;30152;52.066;5.358;2023-02-26T18:11:01;7.97;;;1.38;;
44446;SDS011;30152;52.066;5.358;2023-02-26T18:13:28;10.57;;;1.40;;
44446;SDS011;30152;52.066;5.358;2023-02-26T18:15:54;12.23;;;1.83;;
44446;SDS011;30152;52.066;5.358;2023-02-26T18:18:22;7.72;;;1.30;;
44446;SDS011;30152;52.066;5.358;2023-02-26T18:20:48;5.35;;;1.40;;
44446;SDS011;30152;52.066;5.358;2023-02-26T18:23:14;10.20;;;1.70;;
44446;SDS011;30152;52.066;5.358;2023-02-26T18:25:41;9.20;;;1.45;;
44446;SDS011;30152;52.066;5.358;2023-02-26T18:28:09;6.28;;;1.70;;
44446;SDS011;30152;52.066;5.358;2023-02-26T18:30:39;8.45;;;1.95;;
44446;SDS011;30152;52.066;5.358;2023-02-26T18:33:07;7.80;;;1.30;;
44446;SDS011;30152;52.066;5.358;2023-02-26T18:35:33;9.35;;;1.92;;
44446;SDS011;30152;52.066;5.358;2023-02-26T18:37:59;7.53;;;1.25;;
44446;SDS011;30152;52.066;5.358;2023-02-26T18:40:26;6.63;;;1.83;;
44446;SDS011;30152;52.066;5.358;2023-02-26T18:42:52;5.03;;;1.35;;
44446;SDS011;30152;52.066;5.358;2023-02-26T18:45:18;12.90;;;1.33;;
44446;SDS011;30152;52.066;5.358;2023-02-26T18:47:45;9.40;;;1.73;;
44446;SDS011;30152;52.066;5.358;2023-02-26T18:50:12;8.82;;;1.52;;
44446;SDS011;30152;52.066;5.358;2023-02-26T18:52:38;9.43;;;1.90;;
44446;SDS011;30152;52.066;5.358;2023-02-26T18:55:04;8.50;;;1.80;;
44446;SDS011;30152;52.066;5.358;2023-02-26T18:57:30;7.38;;;2.00;;
44446;SDS011;30152;52.066;5.358;2023-02-26T18:59:56;9.27;;;2.40;;
44446;SDS011;30152;52.066;5.358;2023-02-26T19:02:23;8.98;;;2.28;;
44446;SDS011;30152;52.066;5.358;2023-02-26T19:04:49;11.10;;;2.72;;
44446;SDS011;30152;52.066;5.358;2023-02-26T19:07:15;12.45;;;3.92;;
44446;SDS011;30152;52.066;5.358;2023-02-26T19:09:41;13.20;;;3.22;;
44446;SDS011;30152;52.066;5.358;2023-02-26T19:12:07;9.45;;;2.40;;
44446;SDS011;30152;52.066;5.358;2023-02-26T19:14:33;10.05;;;2.50;;
44446;SDS011;30152;52.066;5.358;2023-02-26T19:16:59;7.07;;;1.67;;
44446;SDS011;30152;52.066;5.358;2023-02-26T19:19:25;9.00;;;1.85;;
44446;SDS011;30152;52.066;5.358;2023-02-26T19:21:51;9.25;;;1.45;;
44446;SDS011;30152;52.066;5.358;2023-02-26T19:24:18;6.15;;;1.45;;
44446;SDS011;30152;52.066;5.358;2023-02-26T19:26:44;7.78;;;1.60;;
44446;SDS011;30152;52.066;5.358;2023-02-26T19:29:13;5.35;;;1.58;;
44446;SDS011;30152;52.066;5.358;2023-02-26T19:31:39;13.07;;;1.88;;
44446;SDS011;30152;52.066;5.358;2023-02-26T19:34:05;10.45;;;3.15;;
44446;SDS011;30152;52.066;5.358;2023-02-26T19:36:31;10.10;;;2.30;;
44446;SDS011;30152;52.066;5.358;2023-02-26T19:38:57;8.27;;;1.70;;
44446;SDS011;30152;52.066;5.358;2023-02-26T19:41:23;10.77;;;1.55;;
44446;SDS011;30152;52.066;5.358;2023-02-26T19:43:49;6.15;;;1.45;;
44446;SDS011;30152;52.066;5.358;2023-02-26T19:46:15;7.07;;;1.73;;
44446;SDS011;30152;52.066;5.358;2023-02-26T19:48:41;10.55;;;2.00;;
44446;SDS011;30152;52.066;5.358;2023-02-26T19:51:07;7.28;;;1.48;;
44446;SDS011;30152;52.066;5.358;2023-02-26T19:53:33;7.90;;;1.60;;
44446;SDS011;30152;52.066;5.358;2023-02-26T19:55:59;8.45;;;1.95;;
44446;SDS011;30152;52.066;5.358;2023-02-26T19:58:25;5.70;;;1.63;;
44446;SDS011;30152;52.066;5.358;2023-02-26T20:00:54;6.13;;;1.65;;
44446;SDS011;30152;52.066;5.358;2023-02-26T20:03:21;5.80;;;1.88;;
44446;SDS011;30152;52.066;5.358;2023-02-26T20:05:46;6.90;;;1.70;;
44446;SDS011;30152;52.066;5.358;2023-02-26T20:08:12;5.70;;;1.40;;
44446;SDS011;30152;52.066;5.358;2023-02-26T20:10:38;10.00;;;1.52;;
44446;SDS011;30152;52.066;5.358;2023-02-26T20:13:05;7.80;;;1.58;;
44446;SDS011;30152;52.066;5.358;2023-02-26T20:15:31;7.63;;;1.30;;
44446;SDS011;30152;52.066;5.358;2023-02-26T20:17:57;10.85;;;1.73;;
44446;SDS011;30152;52.066;5.358;2023-02-26T20:20:23;7.65;;;1.85;;
44446;SDS011;30152;52.066;5.358;2023-02-26T20:22:48;8.98;;;2.00;;
44446;SDS011;30152;52.066;5.358;2023-02-26T20:25:14;8.57;;;1.95;;
44446;SDS011;30152;52.066;5.358;2023-02-26T20:27:41;6.07;;;1.52;;
44446;SDS011;30152;52.066;5.358;2023-02-26T20:30:07;8.82;;;1.90;;
44446;SDS011;30152;52.066;5.358;2023-02-26T20:32:33;7.90;;;2.00;;
44446;SDS011;30152;52.066;5.358;2023-02-26T20:34:59;9.93;;;1.98;;
44446;SDS011;30152;52.066;5.358;2023-02-26T20:37:25;9.98;;;1.83;;
44446;SDS011;30152;52.066;5.358;2023-02-26T20:39:50;5.70;;;1.40;;
44446;SDS011;30152;52.066;5.358;2023-02-26T20:42:16;10.23;;;2.00;;
44446;SDS011;30152;52.066;5.358;2023-02-26T20:44:42;6.93;;;1.58;;
44446;SDS011;30152;52.066;5.358;2023-02-26T20:47:08;7.47;;;1.60;;
44446;SDS011;30152;52.066;5.358;2023-02-26T20:49:34;8.98;;;2.25;;
44446;SDS011;30152;52.066;5.358;2023-02-26T20:52:00;10.73;;;2.20;;
44446;SDS011;30152;52.066;5.358;2023-02-26T20:54:26;6.13;;;1.83;;
44446;SDS011;30152;52.066;5.358;2023-02-26T20:56:51;6.75;;;1.77;;
44446;SDS011;30152;52.066;5.358;2023-02-26T20:59:17;7.28;;;2.03;;
44446;SDS011;30152;52.066;5.358;2023-02-26T21:01:44;6.97;;;1.70;;
44446;SDS011;30152;52.066;5.358;2023-02-26T21:04:11;8.13;;;1.88;;
44446;SDS011;30152;52.066;5.358;2023-02-26T21:06:37;8.00;;;2.10;;
44446;SDS011;30152;52.066;5.358;2023-02-26T21:09:03;7.80;;;1.95;;
44446;SDS011;30152;52.066;5.358;2023-02-26T21:11:29;18.88;;;2.13;;
44446;SDS011;30152;52.066;5.358;2023-02-26T21:13:56;7.22;;;1.70;;
44446;SDS011;30152;52.066;5.358;2023-02-26T21:16:22;7.38;;;1.83;;
44446;SDS011;30152;52.066;5.358;2023-02-26T21:18:49;8.50;;;1.73;;
44446;SDS011;30152;52.066;5.358;2023-02-26T21:21:15;7.18;;;1.90;;
44446;SDS011;30152;52.066;5.358;2023-02-26T21:23:40;9.35;;;2.22;;
44446;SDS011;30152;52.066;5.358;2023-02-26T21:26:06;10.65;;;1.73;;
44446;SDS011;30152;52.066;5.358;2023-02-26T21:28:32;5.55;;;1.52;;
44446;SDS011;30152;52.066;5.358;2023-02-26T21:30:59;9.75;;;1.73;;
44446;SDS011;30152;52.066;5.358;2023-02-26T21:33:25;8.13;;;1.75;;
44446;SDS011;30152;52.066;5.358;2023-02-26T21:35:51;10.05;;;2.72;;
44446;SDS011;30152;52.066;5.358;2023-02-26T21:38:17;8.27;;;1.88;;
44446;SDS011;30152;52.066;5.358;2023-02-26T21:40:43;9.88;;;2.22;;
44446;SDS011;30152;52.066;5.358;2023-02-26T21:43:09;10.02;;;1.98;;
44446;SDS011;30152;52.066;5.358;2023-02-26T21:45:36;9.15;;;1.80;;
44446;SDS011;30152;52.066;5.358;2023-02-26T21:48:02;8.70;;;2.25;;
44446;SDS011;30152;52.066;5.358;2023-02-26T21:50:28;11.55;;;2.35;;
44446;SDS011;30152;52.066;5.358;2023-02-26T21:52:54;8.63;;;2.50;;
44446;SDS011;30152;52.066;5.358;2023-02-26T21:55:20;8.07;;;2.33;;
44446;SDS011;30152;52.066;5.358;2023-02-26T21:57:46;9.05;;;2.58;;
44446;SDS011;30152;52.066;5.358;2023-02-26T22:00:12;8.02;;;2.50;;
44446;SDS011;30152;52.066;5.358;2023-02-26T22:02:41;9.98;;;2.78;;
44446;SDS011;30152;52.066;5.358;2023-02-26T22:05:07;15.95;;;2.58;;
44446;SDS011;30152;52.066;5.358;2023-02-26T22:07:34;12.00;;;2.92;;
44446;SDS011;30152;52.066;5.358;2023-02-26T22:10:00;9.85;;;2.50;;
44446;SDS011;30152;52.066;5.358;2023-02-26T22:12:25;8.85;;;2.40;;
44446;SDS011;30152;52.066;5.358;2023-02-26T22:14:51;10.13;;;2.67;;
44446;SDS011;30152;52.066;5.358;2023-02-26T22:17:17;10.75;;;2.72;;
44446;SDS011;30152;52.066;5.358;2023-02-26T22:19:43;8.95;;;2.38;;
